sensor_id;sensor_type;location;lat;lon;timestamp;temperature;humidity
34145;HTU21D;69555;53.014;8.886;2023-08-06T00:02:17;14.08;98.07
34145;HTU21D;69555;53.014;8.886;2023-08-06T00:04:43;14.27;97.32
34145;HTU21D;69555;53.014;8.886;2023-08-06T00:07:08;14.47;96.87
34145;HTU21D;69555;53.014;8.886;2023-08-06T00:09:34;14.52;96.07
34145;HTU21D;69555;53.014;8.886;2023-08-06T00:11:59;14.56;96.03
34145;HTU21D;69555;53.014;8.886;2023-08-06T00:14:24;14.48;96.55
34145;HTU21D;69555;53.014;8.886;2023-08-06T00:16:50;14.29;97.50
34145;HTU21D;69555;53.014;8.886;2023-08-06T00:19:15;14.20;98.28
34145;HTU21D;69555;53.014;8.886;2023-08-06T00:21:40;14.49;97.45
34145;HTU21D;69555;53.014;8.886;2023-08-06T00:24:06;14.34;97.79
34145;HTU21D;69555;53.014;8.886;2023-08-06T00:26:31;14.65;96.07
34145;HTU21D;69555;53.014;8.886;2023-08-06T00:28:57;14.93;94.80
34145;HTU21D;69555;53.014;8.886;2023-08-06T00:31:22;15.11;93.85
34145;HTU21D;69555;53.014;8.886;2023-08-06T00:33:48;15.03;93.98
34145;HTU21D;69555;53.014;8.886;2023-08-06T00:36:13;14.96;94.50
34145;HTU21D;69555;53.014;8.886;2023-08-06T00:38:38;14.69;96.01
34145;HTU21D;69555;53.014;8.886;2023-08-06T00:41:04;14.92;95.14
34145;HTU21D;69555;53.014;8.886;2023-08-06T00:43:29;14.77;95.62
34145;HTU21D;69555;53.014;8.886;2023-08-06T00:45:55;14.58;96.91
34145;HTU21D;69555;53.014;8.886;2023-08-06T00:48:21;14.29;98.39
34145;HTU21D;69555;53.014;8.886;2023-08-06T00:50:46;14.28;98.65
34145;HTU21D;69555;53.014;8.886;2023-08-06T00:53:12;14.33;98.53
34145;HTU21D;69555;53.014;8.886;2023-08-06T00:55:38;14.44;97.68
34145;HTU21D;69555;53.014;8.886;2023-08-06T00:58:04;14.48;97.84
34145;HTU21D;69555;53.014;8.886;2023-08-06T01:00:30;14.64;97.02
34145;HTU21D;69555;53.014;8.886;2023-08-06T01:02:55;14.65;96.68
34145;HTU21D;69555;53.014;8.886;2023-08-06T01:05:22;14.59;96.78
34145;HTU21D;69555;53.014;8.886;2023-08-06T01:10:58;14.66;96.38
34145;HTU21D;69555;53.014;8.886;2023-08-06T01:13:32;14.58;96.64
34145;HTU21D;69555;53.014;8.886;2023-08-06T01:15:58;14.38;97.91
34145;HTU21D;69555;53.014;8.886;2023-08-06T01:18:25;14.37;97.85
34145;HTU21D;69555;53.014;8.886;2023-08-06T01:20:51;14.21;98.66
34145;HTU21D;69555;53.014;8.886;2023-08-06T01:23:17;14.23;98.71
34145;HTU21D;69555;53.014;8.886;2023-08-06T01:25:58;14.59;97.12
34145;HTU21D;69555;53.014;8.886;2023-08-06T01:28:44;14.60;97.45
34145;HTU21D;69555;53.014;8.886;2023-08-06T01:31:20;14.56;97.47
34145;HTU21D;69555;53.014;8.886;2023-08-06T01:33:47;14.62;97.52
34145;HTU21D;69555;53.014;8.886;2023-08-06T01:36:18;14.81;96.50
34145;HTU21D;69555;53.014;8.886;2023-08-06T01:38:44;14.83;95.74
34145;HTU21D;69555;53.014;8.886;2023-08-06T01:41:09;14.81;95.68
34145;HTU21D;69555;53.014;8.886;2023-08-06T01:43:35;14.79;95.74
34145;HTU21D;69555;53.014;8.886;2023-08-06T01:46:00;14.71;96.02
34145;HTU21D;69555;53.014;8.886;2023-08-06T01:48:26;14.67;96.23
34145;HTU21D;69555;53.014;8.886;2023-08-06T01:50:51;14.66;96.07
34145;HTU21D;69555;53.014;8.886;2023-08-06T01:53:16;14.65;96.45
34145;HTU21D;69555;53.014;8.886;2023-08-06T01:55:42;14.56;97.21
34145;HTU21D;69555;53.014;8.886;2023-08-06T01:58:07;14.22;98.65
34145;HTU21D;69555;53.014;8.886;2023-08-06T02:00:33;14.32;98.52
34145;HTU21D;69555;53.014;8.886;2023-08-06T02:02:58;14.48;97.60
34145;HTU21D;69555;53.014;8.886;2023-08-06T02:05:23;14.74;96.25
34145;HTU21D;69555;53.014;8.886;2023-08-06T02:07:49;14.29;98.45
34145;HTU21D;69555;53.014;8.886;2023-08-06T02:10:14;14.15;99.19
34145;HTU21D;69555;53.014;8.886;2023-08-06T02:12:39;14.26;98.84
34145;HTU21D;69555;53.014;8.886;2023-08-06T02:15:05;14.18;99.38
34145;HTU21D;69555;53.014;8.886;2023-08-06T02:17:31;14.09;100.09
34145;HTU21D;69555;53.014;8.886;2023-08-06T02:19:56;14.13;99.57
34145;HTU21D;69555;53.014;8.886;2023-08-06T02:22:22;14.35;98.63
34145;HTU21D;69555;53.014;8.886;2023-08-06T02:24:49;14.40;98.27
34145;HTU21D;69555;53.014;8.886;2023-08-06T02:27:14;14.58;97.00
34145;HTU21D;69555;53.014;8.886;2023-08-06T02:29:40;14.53;97.30
34145;HTU21D;69555;53.014;8.886;2023-08-06T02:32:07;14.50;97.40
34145;HTU21D;69555;53.014;8.886;2023-08-06T02:34:32;14.68;96.39
34145;HTU21D;69555;53.014;8.886;2023-08-06T02:36:57;14.58;96.67
34145;HTU21D;69555;53.014;8.886;2023-08-06T02:39:23;14.65;96.38
34145;HTU21D;69555;53.014;8.886;2023-08-06T02:41:48;14.42;97.43
34145;HTU21D;69555;53.014;8.886;2023-08-06T02:44:14;14.27;98.42
34145;HTU21D;69555;53.014;8.886;2023-08-06T02:46:39;14.34;98.26
34145;HTU21D;69555;53.014;8.886;2023-08-06T02:49:04;14.45;97.33
34145;HTU21D;69555;53.014;8.886;2023-08-06T02:51:31;14.39;98.10
34145;HTU21D;69555;53.014;8.886;2023-08-06T02:53:56;14.22;98.86
34145;HTU21D;69555;53.014;8.886;2023-08-06T02:56:22;14.53;97.45
34145;HTU21D;69555;53.014;8.886;2023-08-06T02:58:47;14.78;96.16
34145;HTU21D;69555;53.014;8.886;2023-08-06T03:01:13;14.71;96.09
34145;HTU21D;69555;53.014;8.886;2023-08-06T03:03:39;14.94;95.14
34145;HTU21D;69555;53.014;8.886;2023-08-06T03:06:04;14.79;95.56
34145;HTU21D;69555;53.014;8.886;2023-08-06T03:08:30;14.86;95.49
34145;HTU21D;69555;53.014;8.886;2023-08-06T03:10:55;14.50;96.94
34145;HTU21D;69555;53.014;8.886;2023-08-06T03:13:21;14.75;95.89
34145;HTU21D;69555;53.014;8.886;2023-08-06T03:18:19;14.03;99.85
34145;HTU21D;69555;53.014;8.886;2023-08-06T03:20:45;13.85;100.75
34145;HTU21D;69555;53.014;8.886;2023-08-06T03:23:10;13.79;101.20
34145;HTU21D;69555;53.014;8.886;2023-08-06T03:25:35;13.93;100.85
34145;HTU21D;69555;53.014;8.886;2023-08-06T03:28:02;13.91;100.93
34145;HTU21D;69555;53.014;8.886;2023-08-06T03:30:27;13.91;101.16
34145;HTU21D;69555;53.014;8.886;2023-08-06T03:32:52;13.96;100.83
34145;HTU21D;69555;53.014;8.886;2023-08-06T03:35:18;13.68;101.96
34145;HTU21D;69555;53.014;8.886;2023-08-06T03:37:43;13.68;102.39
34145;HTU21D;69555;53.014;8.886;2023-08-06T03:40:09;13.67;102.34
34145;HTU21D;69555;53.014;8.886;2023-08-06T03:42:35;13.71;102.40
34145;HTU21D;69555;53.014;8.886;2023-08-06T03:45:00;13.77;102.18
34145;HTU21D;69555;53.014;8.886;2023-08-06T03:47:26;13.91;101.66
34145;HTU21D;69555;53.014;8.886;2023-08-06T03:49:51;13.99;101.57
34145;HTU21D;69555;53.014;8.886;2023-08-06T03:52:16;13.99;101.70
34145;HTU21D;69555;53.014;8.886;2023-08-06T03:54:42;14.21;100.48
34145;HTU21D;69555;53.014;8.886;2023-08-06T03:57:08;14.39;99.61
34145;HTU21D;69555;53.014;8.886;2023-08-06T03:59:34;14.52;98.48
34145;HTU21D;69555;53.014;8.886;2023-08-06T04:02:00;14.45;98.70
34145;HTU21D;69555;53.014;8.886;2023-08-06T04:04:25;14.72;97.55
34145;HTU21D;69555;53.014;8.886;2023-08-06T04:06:50;14.50;97.82
34145;HTU21D;69555;53.014;8.886;2023-08-06T04:09:16;14.00;100.74
34145;HTU21D;69555;53.014;8.886;2023-08-06T04:11:41;14.36;99.23
34145;HTU21D;69555;53.014;8.886;2023-08-06T04:14:07;14.38;99.33
34145;HTU21D;69555;53.014;8.886;2023-08-06T04:16:32;14.08;100.37
34145;HTU21D;69555;53.014;8.886;2023-08-06T04:18:58;14.18;100.15
34145;HTU21D;69555;53.014;8.886;2023-08-06T04:21:24;14.25;100.22
34145;HTU21D;69555;53.014;8.886;2023-08-06T04:23:49;14.67;98.16
34145;HTU21D;69555;53.014;8.886;2023-08-06T04:26:14;14.66;98.23
34145;HTU21D;69555;53.014;8.886;2023-08-06T04:28:40;14.83;97.28
34145;HTU21D;69555;53.014;8.886;2023-08-06T04:31:05;14.54;98.23
34145;HTU21D;69555;53.014;8.886;2023-08-06T04:33:31;14.92;96.77
34145;HTU21D;69555;53.014;8.886;2023-08-06T04:35:57;14.96;96.60
34145;HTU21D;69555;53.014;8.886;2023-08-06T04:38:25;14.85;96.44
34145;HTU21D;69555;53.014;8.886;2023-08-06T04:40:51;15.17;95.17
34145;HTU21D;69555;53.014;8.886;2023-08-06T04:43:17;14.64;97.58
34145;HTU21D;69555;53.014;8.886;2023-08-06T04:45:50;14.60;97.77
34145;HTU21D;69555;53.014;8.886;2023-08-06T04:48:16;14.78;97.24
34145;HTU21D;69555;53.014;8.886;2023-08-06T04:50:45;14.93;96.81
34145;HTU21D;69555;53.014;8.886;2023-08-06T04:53:10;14.67;97.60
34145;HTU21D;69555;53.014;8.886;2023-08-06T04:55:36;14.93;96.71
34145;HTU21D;69555;53.014;8.886;2023-08-06T04:58:01;15.07;96.23
34145;HTU21D;69555;53.014;8.886;2023-08-06T05:00:26;15.00;96.27
34145;HTU21D;69555;53.014;8.886;2023-08-06T05:02:52;14.85;97.10
34145;HTU21D;69555;53.014;8.886;2023-08-06T05:05:17;14.97;96.69
34145;HTU21D;69555;53.014;8.886;2023-08-06T05:07:42;15.23;95.85
34145;HTU21D;69555;53.014;8.886;2023-08-06T05:10:08;15.27;95.05
34145;HTU21D;69555;53.014;8.886;2023-08-06T05:12:34;15.18;95.59
34145;HTU21D;69555;53.014;8.886;2023-08-06T05:14:59;15.44;94.66
34145;HTU21D;69555;53.014;8.886;2023-08-06T05:17:24;15.22;95.59
34145;HTU21D;69555;53.014;8.886;2023-08-06T05:19:50;15.10;95.73
34145;HTU21D;69555;53.014;8.886;2023-08-06T05:22:15;15.42;94.59
34145;HTU21D;69555;53.014;8.886;2023-08-06T05:24:41;15.17;96.15
34145;HTU21D;69555;53.014;8.886;2023-08-06T05:27:06;15.15;96.28
34145;HTU21D;69555;53.014;8.886;2023-08-06T05:29:32;15.10;96.35
34145;HTU21D;69555;53.014;8.886;2023-08-06T05:31:57;15.25;95.75
34145;HTU21D;69555;53.014;8.886;2023-08-06T05:34:23;15.11;96.36
34145;HTU21D;69555;53.014;8.886;2023-08-06T05:36:48;15.16;95.95
34145;HTU21D;69555;53.014;8.886;2023-08-06T05:39:13;15.16;96.39
34145;HTU21D;69555;53.014;8.886;2023-08-06T05:41:39;15.27;95.59
34145;HTU21D;69555;53.014;8.886;2023-08-06T05:44:04;14.81;96.66
34145;HTU21D;69555;53.014;8.886;2023-08-06T05:46:30;15.10;96.26
34145;HTU21D;69555;53.014;8.886;2023-08-06T05:48:55;15.33;95.88
34145;HTU21D;69555;53.014;8.886;2023-08-06T05:51:20;15.40;95.88
34145;HTU21D;69555;53.014;8.886;2023-08-06T05:53:46;15.46;95.06
34145;HTU21D;69555;53.014;8.886;2023-08-06T05:56:12;15.27;95.68
34145;HTU21D;69555;53.014;8.886;2023-08-06T05:58:37;15.12;96.13
34145;HTU21D;69555;53.014;8.886;2023-08-06T06:01:03;15.24;95.53
34145;HTU21D;69555;53.014;8.886;2023-08-06T06:03:28;15.07;95.16
34145;HTU21D;69555;53.014;8.886;2023-08-06T06:05:54;15.14;95.80
34145;HTU21D;69555;53.014;8.886;2023-08-06T06:08:19;15.03;96.65
34145;HTU21D;69555;53.014;8.886;2023-08-06T06:10:44;15.15;96.38
34145;HTU21D;69555;53.014;8.886;2023-08-06T06:13:10;15.59;94.66
34145;HTU21D;69555;53.014;8.886;2023-08-06T06:15:35;15.77;93.77
34145;HTU21D;69555;53.014;8.886;2023-08-06T06:18:01;16.11;92.05
34145;HTU21D;69555;53.014;8.886;2023-08-06T06:20:26;15.73;92.30
34145;HTU21D;69555;53.014;8.886;2023-08-06T06:22:51;15.58;93.74
34145;HTU21D;69555;53.014;8.886;2023-08-06T06:25:17;15.23;95.13
34145;HTU21D;69555;53.014;8.886;2023-08-06T06:27:42;15.00;96.45
34145;HTU21D;69555;53.014;8.886;2023-08-06T06:30:08;15.57;94.09
34145;HTU21D;69555;53.014;8.886;2023-08-06T06:32:33;15.39;93.96
34145;HTU21D;69555;53.014;8.886;2023-08-06T06:34:59;15.33;94.44
34145;HTU21D;69555;53.014;8.886;2023-08-06T06:37:25;15.52;93.75
34145;HTU21D;69555;53.014;8.886;2023-08-06T06:39:50;15.28;94.04
34145;HTU21D;69555;53.014;8.886;2023-08-06T06:42:16;15.58;93.27
34145;HTU21D;69555;53.014;8.886;2023-08-06T06:44:41;15.74;91.08
34145;HTU21D;69555;53.014;8.886;2023-08-06T06:47:07;15.49;92.54
34145;HTU21D;69555;53.014;8.886;2023-08-06T06:49:32;15.92;89.63
34145;HTU21D;69555;53.014;8.886;2023-08-06T06:51:58;15.67;90.91
34145;HTU21D;69555;53.014;8.886;2023-08-06T06:54:23;15.27;92.72
34145;HTU21D;69555;53.014;8.886;2023-08-06T06:56:48;15.69;91.21
34145;HTU21D;69555;53.014;8.886;2023-08-06T06:59:14;15.62;90.57
34145;HTU21D;69555;53.014;8.886;2023-08-06T07:01:39;15.43;91.45
34145;HTU21D;69555;53.014;8.886;2023-08-06T07:04:04;15.84;90.72
34145;HTU21D;69555;53.014;8.886;2023-08-06T07:06:31;16.15;90.05
34145;HTU21D;69555;53.014;8.886;2023-08-06T07:08:57;17.04;86.89
34145;HTU21D;69555;53.014;8.886;2023-08-06T07:11:22;16.31;88.80
34145;HTU21D;69555;53.014;8.886;2023-08-06T07:13:49;16.56;87.54
34145;HTU21D;69555;53.014;8.886;2023-08-06T07:16:14;16.82;87.62
34145;HTU21D;69555;53.014;8.886;2023-08-06T07:18:40;16.86;87.17
34145;HTU21D;69555;53.014;8.886;2023-08-06T07:21:05;16.93;85.34
34145;HTU21D;69555;53.014;8.886;2023-08-06T07:23:31;16.59;87.28
34145;HTU21D;69555;53.014;8.886;2023-08-06T07:25:56;16.56;88.57
34145;HTU21D;69555;53.014;8.886;2023-08-06T07:28:22;16.73;88.10
34145;HTU21D;69555;53.014;8.886;2023-08-06T07:30:47;17.21;85.88
34145;HTU21D;69555;53.014;8.886;2023-08-06T07:33:13;17.02;86.83
34145;HTU21D;69555;53.014;8.886;2023-08-06T07:35:38;18.08;83.23
34145;HTU21D;69555;53.014;8.886;2023-08-06T07:38:04;18.29;81.72
34145;HTU21D;69555;53.014;8.886;2023-08-06T07:40:29;17.63;83.71
34145;HTU21D;69555;53.014;8.886;2023-08-06T07:42:55;18.11;80.48
34145;HTU21D;69555;53.014;8.886;2023-08-06T07:45:20;18.56;80.12
34145;HTU21D;69555;53.014;8.886;2023-08-06T07:47:46;18.94;79.44
34145;HTU21D;69555;53.014;8.886;2023-08-06T07:50:12;21.22;71.95
34145;HTU21D;69555;53.014;8.886;2023-08-06T07:52:38;22.46;64.63
34145;HTU21D;69555;53.014;8.886;2023-08-06T07:55:03;21.38;69.71
34145;HTU21D;69555;53.014;8.886;2023-08-06T07:57:33;21.34;69.79
34145;HTU21D;69555;53.014;8.886;2023-08-06T08:00:00;22.80;65.21
34145;HTU21D;69555;53.014;8.886;2023-08-06T08:02:25;22.12;66.16
34145;HTU21D;69555;53.014;8.886;2023-08-06T08:04:51;23.30;61.47
34145;HTU21D;69555;53.014;8.886;2023-08-06T08:07:16;24.08;59.35
34145;HTU21D;69555;53.014;8.886;2023-08-06T08:09:41;24.71;57.62
34145;HTU21D;69555;53.014;8.886;2023-08-06T08:12:07;24.46;59.70
34145;HTU21D;69555;53.014;8.886;2023-08-06T08:14:32;23.76;62.64
34145;HTU21D;69555;53.014;8.886;2023-08-06T08:17:02;21.40;67.07
34145;HTU21D;69555;53.014;8.886;2023-08-06T08:19:28;22.04;66.57
34145;HTU21D;69555;53.014;8.886;2023-08-06T08:21:54;22.44;64.50
34145;HTU21D;69555;53.014;8.886;2023-08-06T08:24:20;23.80;61.85
34145;HTU21D;69555;53.014;8.886;2023-08-06T08:26:52;24.93;57.48
34145;HTU21D;69555;53.014;8.886;2023-08-06T08:29:17;26.40;54.55
34145;HTU21D;69555;53.014;8.886;2023-08-06T08:31:43;25.56;53.73
34145;HTU21D;69555;53.014;8.886;2023-08-06T08:34:09;24.66;58.32
34145;HTU21D;69555;53.014;8.886;2023-08-06T08:36:35;25.48;55.49
34145;HTU21D;69555;53.014;8.886;2023-08-06T08:39:00;25.46;53.46
34145;HTU21D;69555;53.014;8.886;2023-08-06T08:41:28;25.89;53.28
34145;HTU21D;69555;53.014;8.886;2023-08-06T08:43:55;25.38;56.72
34145;HTU21D;69555;53.014;8.886;2023-08-06T08:46:21;27.06;51.72
34145;HTU21D;69555;53.014;8.886;2023-08-06T08:48:47;24.47;57.94
34145;HTU21D;69555;53.014;8.886;2023-08-06T08:51:13;26.55;52.94
34145;HTU21D;69555;53.014;8.886;2023-08-06T08:53:38;26.04;56.11
34145;HTU21D;69555;53.014;8.886;2023-08-06T08:56:05;25.22;55.49
34145;HTU21D;69555;53.014;8.886;2023-08-06T08:58:32;22.04;65.37
34145;HTU21D;69555;53.014;8.886;2023-08-06T09:00:58;22.28;64.84
34145;HTU21D;69555;53.014;8.886;2023-08-06T09:03:24;23.37;62.80
34145;HTU21D;69555;53.014;8.886;2023-08-06T09:05:53;23.12;64.72
34145;HTU21D;69555;53.014;8.886;2023-08-06T09:08:22;22.91;66.85
34145;HTU21D;69555;53.014;8.886;2023-08-06T09:10:50;22.87;67.55
34145;HTU21D;69555;53.014;8.886;2023-08-06T09:13:17;23.38;66.98
34145;HTU21D;69555;53.014;8.886;2023-08-06T09:15:43;22.72;65.05
34145;HTU21D;69555;53.014;8.886;2023-08-06T09:18:10;21.66;68.78
34145;HTU21D;69555;53.014;8.886;2023-08-06T09:20:37;21.89;67.68
34145;HTU21D;69555;53.014;8.886;2023-08-06T09:23:10;21.28;70.64
34145;HTU21D;69555;53.014;8.886;2023-08-06T09:25:38;22.08;71.12
34145;HTU21D;69555;53.014;8.886;2023-08-06T09:28:07;22.12;69.56
34145;HTU21D;69555;53.014;8.886;2023-08-06T09:30:35;22.43;69.61
34145;HTU21D;69555;53.014;8.886;2023-08-06T09:33:01;22.57;69.16
34145;HTU21D;69555;53.014;8.886;2023-08-06T09:35:30;22.78;69.14
34145;HTU21D;69555;53.014;8.886;2023-08-06T09:38:05;21.98;65.91
34145;HTU21D;69555;53.014;8.886;2023-08-06T09:40:32;22.43;68.96
34145;HTU21D;69555;53.014;8.886;2023-08-06T09:42:59;21.96;66.59
34145;HTU21D;69555;53.014;8.886;2023-08-06T09:45:37;21.78;67.73
34145;HTU21D;69555;53.014;8.886;2023-08-06T09:48:04;22.24;65.81
34145;HTU21D;69555;53.014;8.886;2023-08-06T09:50:31;21.72;68.25
34145;HTU21D;69555;53.014;8.886;2023-08-06T09:52:58;21.61;66.59
34145;HTU21D;69555;53.014;8.886;2023-08-06T09:55:24;21.95;66.46
34145;HTU21D;69555;53.014;8.886;2023-08-06T09:57:53;22.10;68.42
34145;HTU21D;69555;53.014;8.886;2023-08-06T10:00:20;21.73;67.48
34145;HTU21D;69555;53.014;8.886;2023-08-06T10:02:45;22.25;68.03
34145;HTU21D;69555;53.014;8.886;2023-08-06T10:05:11;22.73;66.97
34145;HTU21D;69555;53.014;8.886;2023-08-06T10:07:37;22.60;66.69
34145;HTU21D;69555;53.014;8.886;2023-08-06T10:10:05;22.71;66.27
34145;HTU21D;69555;53.014;8.886;2023-08-06T10:12:38;23.13;65.37
34145;HTU21D;69555;53.014;8.886;2023-08-06T10:15:09;22.81;62.10
34145;HTU21D;69555;53.014;8.886;2023-08-06T10:17:36;23.25;63.76
34145;HTU21D;69555;53.014;8.886;2023-08-06T10:20:07;23.66;65.04
34145;HTU21D;69555;53.014;8.886;2023-08-06T10:22:33;23.44;64.50
34145;HTU21D;69555;53.014;8.886;2023-08-06T10:25:00;23.87;64.83
34145;HTU21D;69555;53.014;8.886;2023-08-06T10:27:33;23.45;62.13
34145;HTU21D;69555;53.014;8.886;2023-08-06T10:30:30;23.32;64.18
34145;HTU21D;69555;53.014;8.886;2023-08-06T10:33:01;23.73;65.73
34145;HTU21D;69555;53.014;8.886;2023-08-06T10:35:41;23.59;64.00
34145;HTU21D;69555;53.014;8.886;2023-08-06T10:40:40;24.61;60.48
34145;HTU21D;69555;53.014;8.886;2023-08-06T10:43:06;24.60;59.10
34145;HTU21D;69555;53.014;8.886;2023-08-06T10:45:35;25.09;56.79
34145;HTU21D;69555;53.014;8.886;2023-08-06T10:48:00;24.32;57.60
34145;HTU21D;69555;53.014;8.886;2023-08-06T10:50:26;24.55;58.99
34145;HTU21D;69555;53.014;8.886;2023-08-06T10:52:51;23.74;60.83
34145;HTU21D;69555;53.014;8.886;2023-08-06T10:55:28;23.97;61.11
34145;HTU21D;69555;53.014;8.886;2023-08-06T10:57:55;23.69;62.15
34145;HTU21D;69555;53.014;8.886;2023-08-06T11:00:22;23.44;63.37
34145;HTU21D;69555;53.014;8.886;2023-08-06T11:02:51;23.24;61.61
34145;HTU21D;69555;53.014;8.886;2023-08-06T11:05:17;23.11;62.92
34145;HTU21D;69555;53.014;8.886;2023-08-06T11:07:43;23.08;66.39
34145;HTU21D;69555;53.014;8.886;2023-08-06T11:10:10;23.41;63.65
34145;HTU21D;69555;53.014;8.886;2023-08-06T11:12:36;23.75;66.23
34145;HTU21D;69555;53.014;8.886;2023-08-06T11:15:03;23.27;62.60
34145;HTU21D;69555;53.014;8.886;2023-08-06T11:17:29;23.66;62.02
34145;HTU21D;69555;53.014;8.886;2023-08-06T11:19:56;23.52;64.86
34145;HTU21D;69555;53.014;8.886;2023-08-06T11:22:22;23.99;60.01
34145;HTU21D;69555;53.014;8.886;2023-08-06T11:24:48;23.95;62.64
34145;HTU21D;69555;53.014;8.886;2023-08-06T11:27:15;24.27;59.61
34145;HTU21D;69555;53.014;8.886;2023-08-06T11:29:41;24.41;62.09
34145;HTU21D;69555;53.014;8.886;2023-08-06T11:32:07;24.66;60.20
34145;HTU21D;69555;53.014;8.886;2023-08-06T11:34:33;23.81;64.14
34145;HTU21D;69555;53.014;8.886;2023-08-06T11:36:59;23.81;61.23
34145;HTU21D;69555;53.014;8.886;2023-08-06T11:39:24;23.49;60.32
34145;HTU21D;69555;53.014;8.886;2023-08-06T11:41:50;23.73;59.08
34145;HTU21D;69555;53.014;8.886;2023-08-06T11:44:19;24.78;62.18
34145;HTU21D;69555;53.014;8.886;2023-08-06T11:46:55;24.71;60.68
34145;HTU21D;69555;53.014;8.886;2023-08-06T11:54:36;24.18;57.87
34145;HTU21D;69555;53.014;8.886;2023-08-06T11:57:07;24.54;57.87
34145;HTU21D;69555;53.014;8.886;2023-08-06T11:59:33;24.55;60.25
34145;HTU21D;69555;53.014;8.886;2023-08-06T12:02:03;24.53;59.63
34145;HTU21D;69555;53.014;8.886;2023-08-06T12:04:31;23.85;61.80
34145;HTU21D;69555;53.014;8.886;2023-08-06T12:07:04;24.34;59.15
34145;HTU21D;69555;53.014;8.886;2023-08-06T12:09:31;24.30;58.80
34145;HTU21D;69555;53.014;8.886;2023-08-06T12:11:56;24.11;58.20
34145;HTU21D;69555;53.014;8.886;2023-08-06T12:14:21;23.38;59.06
34145;HTU21D;69555;53.014;8.886;2023-08-06T12:16:48;22.85;61.82
34145;HTU21D;69555;53.014;8.886;2023-08-06T12:19:14;23.18;64.32
34145;HTU21D;69555;53.014;8.886;2023-08-06T12:21:39;23.69;62.88
34145;HTU21D;69555;53.014;8.886;2023-08-06T12:24:04;23.64;63.01
34145;HTU21D;69555;53.014;8.886;2023-08-06T12:26:31;23.17;61.38
34145;HTU21D;69555;53.014;8.886;2023-08-06T12:28:56;23.28;62.57
34145;HTU21D;69555;53.014;8.886;2023-08-06T12:31:22;23.22;61.18
34145;HTU21D;69555;53.014;8.886;2023-08-06T12:33:48;23.43;63.07
34145;HTU21D;69555;53.014;8.886;2023-08-06T12:36:13;23.40;60.62
34145;HTU21D;69555;53.014;8.886;2023-08-06T12:38:38;23.37;59.66
34145;HTU21D;69555;53.014;8.886;2023-08-06T12:41:04;23.45;60.58
34145;HTU21D;69555;53.014;8.886;2023-08-06T12:43:29;23.71;60.03
34145;HTU21D;69555;53.014;8.886;2023-08-06T12:45:55;24.25;58.84
34145;HTU21D;69555;53.014;8.886;2023-08-06T12:48:20;24.51;59.22
34145;HTU21D;69555;53.014;8.886;2023-08-06T12:50:45;24.71;61.20
34145;HTU21D;69555;53.014;8.886;2023-08-06T12:53:11;23.79;58.73
34145;HTU21D;69555;53.014;8.886;2023-08-06T12:55:36;24.33;60.67
34145;HTU21D;69555;53.014;8.886;2023-08-06T12:58:01;23.75;57.74
34145;HTU21D;69555;53.014;8.886;2023-08-06T13:00:27;23.75;62.67
34145;HTU21D;69555;53.014;8.886;2023-08-06T13:02:52;24.09;62.44
34145;HTU21D;69555;53.014;8.886;2023-08-06T13:05:18;24.09;59.38
34145;HTU21D;69555;53.014;8.886;2023-08-06T13:07:43;23.92;62.41
34145;HTU21D;69555;53.014;8.886;2023-08-06T13:10:09;24.28;59.40
34145;HTU21D;69555;53.014;8.886;2023-08-06T13:12:34;23.60;60.89
34145;HTU21D;69555;53.014;8.886;2023-08-06T13:15:00;23.94;62.82
34145;HTU21D;69555;53.014;8.886;2023-08-06T13:17:25;23.50;63.38
34145;HTU21D;69555;53.014;8.886;2023-08-06T13:19:51;24.00;60.91
34145;HTU21D;69555;53.014;8.886;2023-08-06T13:22:16;24.18;62.66
34145;HTU21D;69555;53.014;8.886;2023-08-06T13:24:42;23.85;58.58
34145;HTU21D;69555;53.014;8.886;2023-08-06T13:27:07;23.40;59.19
34145;HTU21D;69555;53.014;8.886;2023-08-06T13:29:34;23.58;59.27
34145;HTU21D;69555;53.014;8.886;2023-08-06T13:32:00;23.45;61.26
34145;HTU21D;69555;53.014;8.886;2023-08-06T13:34:25;23.32;59.47
34145;HTU21D;69555;53.014;8.886;2023-08-06T13:36:51;23.47;59.84
34145;HTU21D;69555;53.014;8.886;2023-08-06T13:39:16;23.40;62.09
34145;HTU21D;69555;53.014;8.886;2023-08-06T13:41:42;23.80;60.56
34145;HTU21D;69555;53.014;8.886;2023-08-06T13:44:08;24.05;57.36
34145;HTU21D;69555;53.014;8.886;2023-08-06T13:46:34;23.85;63.36
34145;HTU21D;69555;53.014;8.886;2023-08-06T13:48:59;24.46;62.18
34145;HTU21D;69555;53.014;8.886;2023-08-06T13:51:24;24.74;59.83
34145;HTU21D;69555;53.014;8.886;2023-08-06T13:53:50;24.29;59.60
34145;HTU21D;69555;53.014;8.886;2023-08-06T13:56:17;24.38;56.19
34145;HTU21D;69555;53.014;8.886;2023-08-06T13:58:43;24.32;56.66
34145;HTU21D;69555;53.014;8.886;2023-08-06T14:01:10;23.91;57.32
34145;HTU21D;69555;53.014;8.886;2023-08-06T14:03:36;23.51;59.91
34145;HTU21D;69555;53.014;8.886;2023-08-06T14:06:02;23.52;60.19
34145;HTU21D;69555;53.014;8.886;2023-08-06T14:08:27;23.39;60.62
34145;HTU21D;69555;53.014;8.886;2023-08-06T14:10:53;23.86;58.94
34145;HTU21D;69555;53.014;8.886;2023-08-06T14:13:19;24.01;62.24
34145;HTU21D;69555;53.014;8.886;2023-08-06T14:15:44;23.70;60.35
34145;HTU21D;69555;53.014;8.886;2023-08-06T14:18:13;23.55;57.51
34145;HTU21D;69555;53.014;8.886;2023-08-06T14:20:39;23.56;61.06
34145;HTU21D;69555;53.014;8.886;2023-08-06T14:23:05;23.88;59.93
34145;HTU21D;69555;53.014;8.886;2023-08-06T14:25:30;23.16;61.18
34145;HTU21D;69555;53.014;8.886;2023-08-06T14:27:55;23.26;62.18
34145;HTU21D;69555;53.014;8.886;2023-08-06T14:30:21;23.26;61.50
34145;HTU21D;69555;53.014;8.886;2023-08-06T14:32:46;22.90;62.71
34145;HTU21D;69555;53.014;8.886;2023-08-06T14:35:12;22.53;64.50
34145;HTU21D;69555;53.014;8.886;2023-08-06T14:37:37;22.32;63.18
34145;HTU21D;69555;53.014;8.886;2023-08-06T14:40:05;22.11;64.05
34145;HTU21D;69555;53.014;8.886;2023-08-06T14:42:30;22.26;64.43
34145;HTU21D;69555;53.014;8.886;2023-08-06T14:44:56;22.35;63.63
34145;HTU21D;69555;53.014;8.886;2023-08-06T14:47:21;22.47;62.64
34145;HTU21D;69555;53.014;8.886;2023-08-06T14:49:46;22.49;65.50
34145;HTU21D;69555;53.014;8.886;2023-08-06T14:52:14;22.67;62.08
34145;HTU21D;69555;53.014;8.886;2023-08-06T14:54:40;22.67;62.95
34145;HTU21D;69555;53.014;8.886;2023-08-06T14:57:06;22.57;62.21
34145;HTU21D;69555;53.014;8.886;2023-08-06T14:59:32;22.51;63.17
34145;HTU21D;69555;53.014;8.886;2023-08-06T15:01:57;22.40;62.51
34145;HTU21D;69555;53.014;8.886;2023-08-06T15:04:23;22.34;63.18
34145;HTU21D;69555;53.014;8.886;2023-08-06T15:06:48;22.54;65.14
34145;HTU21D;69555;53.014;8.886;2023-08-06T15:09:14;22.99;63.21
34145;HTU21D;69555;53.014;8.886;2023-08-06T15:11:39;22.92;62.34
34145;HTU21D;69555;53.014;8.886;2023-08-06T15:14:05;23.11;65.21
34145;HTU21D;69555;53.014;8.886;2023-08-06T15:16:32;22.64;62.18
34145;HTU21D;69555;53.014;8.886;2023-08-06T15:18:59;23.12;64.71
34145;HTU21D;69555;53.014;8.886;2023-08-06T15:21:25;22.63;63.41
34145;HTU21D;69555;53.014;8.886;2023-08-06T15:23:50;22.61;61.60